sensor_id;sensor_type;location;lat;lon;timestamp;pressure;altitude;pressure_sealevel;temperature;humidity
23899;BME280;20544;50.018;20.010;2023-04-24T00:03:04;97961.31;;;11.95;100.00
23899;BME280;20544;50.018;20.010;2023-04-24T00:06:21;97954.58;;;11.93;100.00
23899;BME280;20544;50.018;20.010;2023-04-24T00:09:40;97951.30;;;11.91;100.00
23899;BME280;20544;50.018;20.010;2023-04-24T00:12:56;97948.06;;;11.82;100.00
23899;BME280;20544;50.018;20.010;2023-04-24T00:16:12;97951.92;;;11.86;100.00
23899;BME280;20544;50.018;20.010;2023-04-24T00:19:29;97945.63;;;11.80;100.00
23899;BME280;20544;50.018;20.010;2023-04-24T00:22:45;97949.52;;;11.78;100.00
23899;BME280;20544;50.018;20.010;2023-04-24T00:26:02;97941.77;;;11.76;100.00
23899;BME280;20544;50.018;20.010;2023-04-24T00:29:18;97945.45;;;11.75;100.00
23899;BME280;20544;50.018;20.010;2023-04-24T00:32:35;97933.22;;;11.68;100.00
23899;BME280;20544;50.018;20.010;2023-04-24T00:39:06;97930.59;;;11.54;100.00
23899;BME280;20544;50.018;20.010;2023-04-24T00:42:24;97931.24;;;11.43;100.00
23899;BME280;20544;50.018;20.010;2023-04-24T00:45:41;97925.53;;;11.39;100.00
23899;BME280;20544;50.018;20.010;2023-04-24T00:48:58;97923.89;;;11.38;100.00
23899;BME280;20544;50.018;20.010;2023-04-24T00:52:15;97920.03;;;11.34;100.00
23899;BME280;20544;50.018;20.010;2023-04-24T00:55:33;97915.34;;;11.29;100.00
23899;BME280;20544;50.018;20.010;2023-04-24T00:58:52;97910.88;;;11.16;100.00
23899;BME280;20544;50.018;20.010;2023-04-24T01:02:10;97906.59;;;11.02;100.00
23899;BME280;20544;50.018;20.010;2023-04-24T01:05:28;97920.09;;;10.80;100.00
23899;BME280;20544;50.018;20.010;2023-04-24T01:08:47;97916.00;;;10.84;100.00
23899;BME280;20544;50.018;20.010;2023-04-24T01:12:04;97917.64;;;10.86;100.00
23899;BME280;20544;50.018;20.010;2023-04-24T01:15:21;97914.78;;;10.80;100.00
23899;BME280;20544;50.018;20.010;2023-04-24T01:18:37;97914.55;;;10.75;100.00
23899;BME280;20544;50.018;20.010;2023-04-24T01:21:56;97912.33;;;10.72;100.00
23899;BME280;20544;50.018;20.010;2023-04-24T01:25:13;97903.55;;;10.65;100.00
23899;BME280;20544;50.018;20.010;2023-04-24T01:28:30;97906.00;;;10.53;100.00
23899;BME280;20544;50.018;20.010;2023-04-24T01:31:47;97905.17;;;10.46;100.00
23899;BME280;20544;50.018;20.010;2023-04-24T01:35:06;97899.66;;;10.41;100.00
23899;BME280;20544;50.018;20.010;2023-04-24T01:38:23;97894.13;;;10.35;100.00
23899;BME280;20544;50.018;20.010;2023-04-24T01:41:40;97897.79;;;10.34;100.00
23899;BME280;20544;50.018;20.010;2023-04-24T01:45:00;97892.67;;;10.26;100.00
23899;BME280;20544;50.018;20.010;2023-04-24T01:48:19;97888.83;;;10.35;100.00
23899;BME280;20544;50.018;20.010;2023-04-24T01:51:35;97883.55;;;10.42;100.00
23899;BME280;20544;50.018;20.010;2023-04-24T01:54:52;97884.17;;;10.71;100.00
23899;BME280;20544;50.018;20.010;2023-04-24T01:58:08;97879.64;;;11.12;100.00
23899;BME280;20544;50.018;20.010;2023-04-24T02:01:26;97873.74;;;11.03;100.00
23899;BME280;20544;50.018;20.010;2023-04-24T02:04:42;97878.20;;;11.23;100.00
23899;BME280;20544;50.018;20.010;2023-04-24T02:07:59;97869.81;;;11.26;100.00
23899;BME280;20544;50.018;20.010;2023-04-24T02:11:17;97863.53;;;11.00;100.00
23899;BME280;20544;50.018;20.010;2023-04-24T02:14:34;97857.84;;;10.90;100.00
23899;BME280;20544;50.018;20.010;2023-04-24T02:17:51;97852.72;;;10.95;100.00
23899;BME280;20544;50.018;20.010;2023-04-24T02:21:09;97845.59;;;10.75;100.00
23899;BME280;20544;50.018;20.010;2023-04-24T02:24:25;97845.20;;;10.78;100.00
23899;BME280;20544;50.018;20.010;2023-04-24T02:27:41;97843.98;;;10.67;100.00
23899;BME280;20544;50.018;20.010;2023-04-24T02:30:58;97851.95;;;10.61;100.00
23899;BME280;20544;50.018;20.010;2023-04-24T02:34:15;97837.25;;;10.51;100.00
23899;BME280;20544;50.018;20.010;2023-04-24T02:37:32;97832.98;;;10.37;100.00
23899;BME280;20544;50.018;20.010;2023-04-24T02:40:50;97826.81;;;10.16;100.00
23899;BME280;20544;50.018;20.010;2023-04-24T02:44:06;97825.80;;;10.17;100.00
23899;BME280;20544;50.018;20.010;2023-04-24T02:47:23;97829.28;;;10.25;100.00
23899;BME280;20544;50.018;20.010;2023-04-24T02:50:40;97824.14;;;10.03;100.00
23899;BME280;20544;50.018;20.010;2023-04-24T02:53:56;97817.38;;;9.80;100.00
23899;BME280;20544;50.018;20.010;2023-04-24T02:57:13;97809.81;;;9.70;100.00
23899;BME280;20544;50.018;20.010;2023-04-24T03:00:29;97809.44;;;9.80;100.00
23899;BME280;20544;50.018;20.010;2023-04-24T03:03:46;97804.94;;;9.67;100.00
23899;BME280;20544;50.018;20.010;2023-04-24T03:07:04;97811.88;;;9.82;100.00
23899;BME280;20544;50.018;20.010;2023-04-24T03:10:20;97813.09;;;9.79;100.00
23899;BME280;20544;50.018;20.010;2023-04-24T03:13:36;97813.67;;;9.68;100.00
23899;BME280;20544;50.018;20.010;2023-04-24T03:16:53;97815.09;;;9.57;100.00
23899;BME280;20544;50.018;20.010;2023-04-24T03:20:11;97815.69;;;9.59;100.00
23899;BME280;20544;50.018;20.010;2023-04-24T03:23:28;97818.55;;;9.58;100.00
23899;BME280;20544;50.018;20.010;2023-04-24T03:26:45;97816.63;;;9.38;100.00
23899;BME280;20544;50.018;20.010;2023-04-24T03:30:04;97809.39;;;9.60;100.00
23899;BME280;20544;50.018;20.010;2023-04-24T03:33:24;97812.45;;;9.57;100.00
23899;BME280;20544;50.018;20.010;2023-04-24T03:36:42;97808.95;;;9.50;100.00
23899;BME280;20544;50.018;20.010;2023-04-24T03:40:02;97822.56;;;9.47;100.00
23899;BME280;20544;50.018;20.010;2023-04-24T03:43:21;97814.45;;;9.48;100.00
23899;BME280;20544;50.018;20.010;2023-04-24T03:46:38;97814.89;;;9.59;100.00
23899;BME280;20544;50.018;20.010;2023-04-24T03:49:55;97814.89;;;9.59;100.00
23899;BME280;20544;50.018;20.010;2023-04-24T03:53:11;97821.08;;;9.31;100.00
23899;BME280;20544;50.018;20.010;2023-04-24T03:56:29;97815.92;;;9.16;100.00
23899;BME280;20544;50.018;20.010;2023-04-24T03:59:45;97811.53;;;9.30;100.00
23899;BME280;20544;50.018;20.010;2023-04-24T04:03:04;97815.54;;;9.19;100.00
23899;BME280;20544;50.018;20.010;2023-04-24T04:06:21;97812.31;;;9.23;100.00
23899;BME280;20544;50.018;20.010;2023-04-24T04:09:38;97813.60;;;8.99;100.00
23899;BME280;20544;50.018;20.010;2023-04-24T04:12:55;97816.32;;;9.13;100.00
23899;BME280;20544;50.018;20.010;2023-04-24T04:16:12;97819.06;;;9.33;100.00
23899;BME280;20544;50.018;20.010;2023-04-24T04:19:30;97821.92;;;9.38;100.00
23899;BME280;20544;50.018;20.010;2023-04-24T04:22:47;97817.84;;;9.35;100.00
23899;BME280;20544;50.018;20.010;2023-04-24T04:26:05;97817.47;;;9.38;100.00
23899;BME280;20544;50.018;20.010;2023-04-24T04:29:24;97814.41;;;9.42;100.00
23899;BME280;20544;50.018;20.010;2023-04-24T04:32:40;97817.31;;;9.53;100.00
23899;BME280;20544;50.018;20.010;2023-04-24T04:35:57;97809.42;;;9.74;100.00
23899;BME280;20544;50.018;20.010;2023-04-24T04:39:14;97817.00;;;9.90;100.00
23899;BME280;20544;50.018;20.010;2023-04-24T04:42:38;97808.88;;;9.98;100.00
23899;BME280;20544;50.018;20.010;2023-04-24T04:45:55;97811.11;;;9.95;100.00
23899;BME280;20544;50.018;20.010;2023-04-24T04:49:30;97812.73;;;10.02;100.00
23899;BME280;20544;50.018;20.010;2023-04-24T04:52:49;97805.82;;;10.22;100.00
23899;BME280;20544;50.018;20.010;2023-04-24T04:56:07;97814.80;;;10.34;100.00
23899;BME280;20544;50.018;20.010;2023-04-24T04:59:25;97801.38;;;10.56;100.00
23899;BME280;20544;50.018;20.010;2023-04-24T05:02:44;97801.36;;;10.62;100.00
23899;BME280;20544;50.018;20.010;2023-04-24T05:06:01;97815.00;;;10.73;100.00
23899;BME280;20544;50.018;20.010;2023-04-24T05:09:20;97808.88;;;10.86;100.00
23899;BME280;20544;50.018;20.010;2023-04-24T05:12:38;97807.64;;;10.81;100.00
23899;BME280;20544;50.018;20.010;2023-04-24T05:15:53;97812.95;;;10.88;100.00
23899;BME280;20544;50.018;20.010;2023-04-24T05:19:10;97813.95;;;11.00;100.00
23899;BME280;20544;50.018;20.010;2023-04-24T05:22:27;97811.70;;;11.04;100.00
23899;BME280;20544;50.018;20.010;2023-04-24T05:25:43;97801.23;;;11.16;100.00
23899;BME280;20544;50.018;20.010;2023-04-24T05:29:00;97810.80;;;11.30;100.00
23899;BME280;20544;50.018;20.010;2023-04-24T05:32:28;97810.31;;;11.47;100.00
23899;BME280;20544;50.018;20.010;2023-04-24T05:35:45;97806.09;;;11.71;100.00
23899;BME280;20544;50.018;20.010;2023-04-24T05:39:01;97813.59;;;11.88;100.00
23899;BME280;20544;50.018;20.010;2023-04-24T05:42:19;97805.92;;;12.05;100.00
23899;BME280;20544;50.018;20.010;2023-04-24T05:45:37;97804.97;;;12.24;100.00
23899;BME280;20544;50.018;20.010;2023-04-24T05:48:58;97801.06;;;12.27;100.00
23899;BME280;20544;50.018;20.010;2023-04-24T05:52:16;97806.02;;;12.49;100.00
23899;BME280;20544;50.018;20.010;2023-04-24T05:55:34;97793.27;;;12.76;100.00
23899;BME280;20544;50.018;20.010;2023-04-24T05:58:51;97803.03;;;12.82;100.00
23899;BME280;20544;50.018;20.010;2023-04-24T06:02:08;97801.22;;;13.01;100.00
23899;BME280;20544;50.018;20.010;2023-04-24T06:05:24;97800.70;;;13.30;100.00
23899;BME280;20544;50.018;20.010;2023-04-24T06:08:42;97803.07;;;13.38;100.00
23899;BME280;20544;50.018;20.010;2023-04-24T06:11:59;97798.75;;;13.55;100.00
23899;BME280;20544;50.018;20.010;2023-04-24T06:15:31;97809.73;;;13.78;100.00
23899;BME280;20544;50.018;20.010;2023-04-24T06:18:49;97809.02;;;14.13;100.00
23899;BME280;20544;50.018;20.010;2023-04-24T06:22:06;97804.09;;;14.40;100.00
23899;BME280;20544;50.018;20.010;2023-04-24T06:25:24;97803.11;;;14.77;100.00
23899;BME280;20544;50.018;20.010;2023-04-24T06:28:40;97797.47;;;15.14;100.00
23899;BME280;20544;50.018;20.010;2023-04-24T06:31:59;97787.80;;;15.36;100.00
23899;BME280;20544;50.018;20.010;2023-04-24T06:35:15;97791.00;;;15.50;100.00
23899;BME280;20544;50.018;20.010;2023-04-24T06:38:32;97792.81;;;15.62;100.00
23899;BME280;20544;50.018;20.010;2023-04-24T06:41:48;97789.36;;;15.90;100.00
23899;BME280;20544;50.018;20.010;2023-04-24T06:45:06;97787.61;;;16.30;100.00
23899;BME280;20544;50.018;20.010;2023-04-24T06:48:23;97782.73;;;16.44;100.00
23899;BME280;20544;50.018;20.010;2023-04-24T06:51:39;97787.98;;;16.56;100.00
23899;BME280;20544;50.018;20.010;2023-04-24T06:55:01;97777.84;;;16.75;100.00
23899;BME280;20544;50.018;20.010;2023-04-24T06:58:17;97790.63;;;16.90;100.00
23899;BME280;20544;50.018;20.010;2023-04-24T07:01:34;97787.92;;;17.07;100.00
23899;BME280;20544;50.018;20.010;2023-04-24T07:04:50;97792.17;;;17.25;100.00
23899;BME280;20544;50.018;20.010;2023-04-24T07:08:07;97787.92;;;17.51;100.00
23899;BME280;20544;50.018;20.010;2023-04-24T07:11:23;97786.03;;;18.01;100.00
23899;BME280;20544;50.018;20.010;2023-04-24T07:14:41;97784.52;;;18.43;100.00
23899;BME280;20544;50.018;20.010;2023-04-24T07:17:58;97780.47;;;18.83;100.00
23899;BME280;20544;50.018;20.010;2023-04-24T07:21:14;97783.19;;;19.42;100.00
23899;BME280;20544;50.018;20.010;2023-04-24T07:24:30;97779.29;;;20.06;100.00
23899;BME280;20544;50.018;20.010;2023-04-24T07:27:47;97777.41;;;20.53;100.00
23899;BME280;20544;50.018;20.010;2023-04-24T07:31:03;97779.20;;;21.04;100.00
23899;BME280;20544;50.018;20.010;2023-04-24T07:34:20;97775.93;;;21.17;93.16
23899;BME280;20544;50.018;20.010;2023-04-24T07:37:37;97777.49;;;21.84;93.57
23899;BME280;20544;50.018;20.010;2023-04-24T07:40:55;97793.77;;;22.13;93.37
23899;BME280;20544;50.018;20.010;2023-04-24T07:44:11;97786.83;;;22.42;92.92
23899;BME280;20544;50.018;20.010;2023-04-24T07:47:27;97788.19;;;22.34;91.74
23899;BME280;20544;50.018;20.010;2023-04-24T07:50:44;97796.21;;;23.28;91.18
23899;BME280;20544;50.018;20.010;2023-04-24T07:54:00;97788.01;;;23.57;92.13
23899;BME280;20544;50.018;20.010;2023-04-24T07:57:17;97790.92;;;23.41;90.56
23899;BME280;20544;50.018;20.010;2023-04-24T08:00:34;97797.70;;;22.90;89.34
23899;BME280;20544;50.018;20.010;2023-04-24T08:03:50;97780.13;;;23.17;90.75
23899;BME280;20544;50.018;20.010;2023-04-24T08:07:07;97776.44;;;23.51;90.43
23899;BME280;20544;50.018;20.010;2023-04-24T08:10:24;97773.62;;;23.62;92.59
23899;BME280;20544;50.018;20.010;2023-04-24T08:13:43;97776.88;;;22.91;89.98
23899;BME280;20544;50.018;20.010;2023-04-24T08:16:59;97769.10;;;23.33;90.50
23899;BME280;20544;50.018;20.010;2023-04-24T08:20:16;97764.06;;;23.26;90.35
23899;BME280;20544;50.018;20.010;2023-04-24T08:23:32;97768.57;;;23.74;89.37
23899;BME280;20544;50.018;20.010;2023-04-24T08:26:48;97763.16;;;23.74;90.86
23899;BME280;20544;50.018;20.010;2023-04-24T08:30:09;97757.75;;;23.93;89.21
23899;BME280;20544;50.018;20.010;2023-04-24T08:33:26;97763.62;;;24.94;90.61
23899;BME280;20544;50.018;20.010;2023-04-24T08:36:43;97757.57;;;24.22;88.71
23899;BME280;20544;50.018;20.010;2023-04-24T08:39:59;97752.27;;;24.92;89.37
23899;BME280;20544;50.018;20.010;2023-04-24T08:43:18;97755.59;;;24.75;90.33
23899;BME280;20544;50.018;20.010;2023-04-24T08:46:37;97757.16;;;25.32;88.17
23899;BME280;20544;50.018;20.010;2023-04-24T08:49:56;97754.95;;;25.34;87.55
23899;BME280;20544;50.018;20.010;2023-04-24T08:53:15;97761.00;;;25.45;86.21
23899;BME280;20544;50.018;20.010;2023-04-24T08:56:32;97754.45;;;25.46;85.70
23899;BME280;20544;50.018;20.010;2023-04-24T08:59:50;97755.34;;;25.55;86.18
23899;BME280;20544;50.018;20.010;2023-04-24T09:03:07;97748.47;;;25.94;86.53
23899;BME280;20544;50.018;20.010;2023-04-24T09:06:26;97749.63;;;26.16;84.79
23899;BME280;20544;50.018;20.010;2023-04-24T09:09:43;97736.96;;;24.08;86.62
23899;BME280;20544;50.018;20.010;2023-04-24T09:13:00;97745.74;;;24.79;86.20
23899;BME280;20544;50.018;20.010;2023-04-24T09:16:18;97734.23;;;24.54;86.59
23899;BME280;20544;50.018;20.010;2023-04-24T09:19:35;97731.70;;;24.30;86.51
23899;BME280;20544;50.018;20.010;2023-04-24T09:22:55;97726.32;;;24.58;88.25
23899;BME280;20544;50.018;20.010;2023-04-24T09:26:12;97725.98;;;23.80;86.24
23899;BME280;20544;50.018;20.010;2023-04-24T09:29:29;97732.03;;;24.10;88.02
23899;BME280;20544;50.018;20.010;2023-04-24T09:32:46;97718.95;;;24.78;88.20
23899;BME280;20544;50.018;20.010;2023-04-24T09:36:03;97734.09;;;25.07;87.16
23899;BME280;20544;50.018;20.010;2023-04-24T09:39:20;97728.06;;;24.96;86.78
23899;BME280;20544;50.018;20.010;2023-04-24T09:42:37;97721.24;;;24.70;86.40
23899;BME280;20544;50.018;20.010;2023-04-24T09:45:56;97713.18;;;24.51;88.56
23899;BME280;20544;50.018;20.010;2023-04-24T09:49:16;97708.84;;;24.36;86.62
23899;BME280;20544;50.018;20.010;2023-04-24T09:52:36;97714.13;;;24.89;85.41
23899;BME280;20544;50.018;20.010;2023-04-24T09:56:06;97717.22;;;24.96;86.67
23899;BME280;20544;50.018;20.010;2023-04-24T09:59:24;97713.31;;;24.74;85.04
23899;BME280;20544;50.018;20.010;2023-04-24T10:02:42;97702.50;;;23.75;84.14
23899;BME280;20544;50.018;20.010;2023-04-24T10:06:02;97699.01;;;24.41;85.35
23899;BME280;20544;50.018;20.010;2023-04-24T10:09:21;97700.11;;;24.53;85.59
23899;BME280;20544;50.018;20.010;2023-04-24T10:12:42;97695.07;;;24.19;86.93
23899;BME280;20544;50.018;20.010;2023-04-24T10:16:01;97685.58;;;24.02;87.11
23899;BME280;20544;50.018;20.010;2023-04-24T10:19:26;97676.78;;;24.71;88.30
23899;BME280;20544;50.018;20.010;2023-04-24T10:22:40;97675.93;;;24.43;88.68
23899;BME280;20544;50.018;20.010;2023-04-24T10:26:02;97675.25;;;24.51;90.33
23899;BME280;20544;50.018;20.010;2023-04-24T10:29:20;97668.80;;;24.47;86.85
23899;BME280;20544;50.018;20.010;2023-04-24T10:32:37;97674.42;;;24.51;90.27
23899;BME280;20544;50.018;20.010;2023-04-24T10:35:56;97670.73;;;24.00;87.08
23899;BME280;20544;50.018;20.010;2023-04-24T10:39:14;97673.99;;;23.64;86.57
23899;BME280;20544;50.018;20.010;2023-04-24T10:42:36;97660.94;;;23.85;90.96
23899;BME280;20544;50.018;20.010;2023-04-24T10:46:06;97658.63;;;24.11;89.67
23899;BME280;20544;50.018;20.010;2023-04-24T10:49:31;97654.56;;;24.42;90.10
23899;BME280;20544;50.018;20.010;2023-04-24T10:52:49;97657.31;;;24.09;86.10
23899;BME280;20544;50.018;20.010;2023-04-24T10:56:07;97647.91;;;24.20;88.12
23899;BME280;20544;50.018;20.010;2023-04-24T10:59:29;97642.63;;;24.43;88.45
23899;BME280;20544;50.018;20.010;2023-04-24T11:02:48;97636.00;;;24.63;90.32
23899;BME280;20544;50.018;20.010;2023-04-24T11:06:08;97638.62;;;24.40;94.79
23899;BME280;20544;50.018;20.010;2023-04-24T11:09:27;97640.50;;;24.53;91.20
23899;BME280;20544;50.018;20.010;2023-04-24T11:12:45;97645.09;;;23.78;87.54
23899;BME280;20544;50.018;20.010;2023-04-24T11:16:25;97640.28;;;24.08;88.58
23899;BME280;20544;50.018;20.010;2023-04-24T11:19:43;97627.02;;;23.21;89.55
23899;BME280;20544;50.018;20.010;2023-04-24T11:23:06;97637.83;;;23.21;88.10
23899;BME280;20544;50.018;20.010;2023-04-24T11:26:23;97625.03;;;23.08;88.55
23899;BME280;20544;50.018;20.010;2023-04-24T11:29:43;97626.52;;;23.19;88.24
23899;BME280;20544;50.018;20.010;2023-04-24T11:33:03;97626.05;;;23.12;88.53
23899;BME280;20544;50.018;20.010;2023-04-24T11:36:21;97624.95;;;23.13;88.34
23899;BME280;20544;50.018;20.010;2023-04-24T11:39:39;97631.75;;;23.10;88.29
23899;BME280;20544;50.018;20.010;2023-04-24T11:42:56;97617.79;;;23.03;89.92
23899;BME280;20544;50.018;20.010;2023-04-24T11:46:18;97613.32;;;22.93;89.59
23899;BME280;20544;50.018;20.010;2023-04-24T11:49:38;97613.54;;;22.78;90.09
23899;BME280;20544;50.018;20.010;2023-04-24T11:52:56;97605.97;;;22.56;89.17
23899;BME280;20544;50.018;20.010;2023-04-24T11:56:18;97604.06;;;22.32;88.28
23899;BME280;20544;50.018;20.010;2023-04-24T11:59:38;97602.83;;;22.19;89.55
23899;BME280;20544;50.018;20.010;2023-04-24T12:03:06;97599.72;;;22.07;89.69
23899;BME280;20544;50.018;20.010;2023-04-24T12:06:24;97592.38;;;22.12;89.55
23899;BME280;20544;50.018;20.010;2023-04-24T12:09:45;97584.86;;;22.34;92.94
23899;BME280;20544;50.018;20.010;2023-04-24T12:13:03;97584.27;;;22.37;92.93
23899;BME280;20544;50.018;20.010;2023-04-24T12:16:20;97579.36;;;22.44;91.64
23899;BME280;20544;50.018;20.010;2023-04-24T12:19:44;97586.02;;;22.03;90.82
23899;BME280;20544;50.018;20.010;2023-04-24T12:23:02;97582.91;;;22.15;91.55
23899;BME280;20544;50.018;20.010;2023-04-24T12:26:20;97573.51;;;21.83;92.13
23899;BME280;20544;50.018;20.010;2023-04-24T12:29:54;97576.18;;;21.88;92.41
23899;BME280;20544;50.018;20.010;2023-04-24T12:33:12;97567.08;;;21.79;92.70
23899;BME280;20544;50.018;20.010;2023-04-24T12:36:31;97567.02;;;21.55;92.78
23899;BME280;20544;50.018;20.010;2023-04-24T12:40:09;97564.87;;;21.52;92.87
23899;BME280;20544;50.018;20.010;2023-04-24T12:43:36;97557.11;;;21.45;93.00
23899;BME280;20544;50.018;20.010;2023-04-24T12:46:52;97555.19;;;21.16;93.06
23899;BME280;20544;50.018;20.010;2023-04-24T12:50:14;97577.05;;;21.09;93.02
23899;BME280;20544;50.018;20.010;2023-04-24T12:53:32;97586.28;;;20.98;94.37
23899;BME280;20544;50.018;20.010;2023-04-24T12:56:50;97579.81;;;20.99;98.94
23899;BME280;20544;50.018;20.010;2023-04-24T13:00:09;97575.51;;;20.98;100.00
23899;BME280;20544;50.018;20.010;2023-04-24T13:03:27;97578.34;;;20.77;100.00
23899;BME280;20544;50.018;20.010;2023-04-24T13:06:44;97575.98;;;20.55;100.00
23899;BME280;20544;50.018;20.010;2023-04-24T13:10:00;97576.27;;;20.48;100.00
23899;BME280;20544;50.018;20.010;2023-04-24T13:13:17;97577.11;;;20.44;100.00
23899;BME280;20544;50.018;20.010;2023-04-24T13:16:34;97576.91;;;20.19;100.00
23899;BME280;20544;50.018;20.010;2023-04-24T13:19:54;97572.13;;;19.96;100.00
23899;BME280;20544;50.018;20.010;2023-04-24T13:23:09;97569.98;;;19.98;100.00
23899;BME280;20544;50.018;20.010;2023-04-24T13:26:26;97579.66;;;19.94;100.00
23899;BME280;20544;50.018;20.010;2023-04-24T13:29:43;97585.32;;;19.77;100.00
23899;BME280;20544;50.018;20.010;2023-04-24T13:33:00;97584.78;;;19.69;100.00
23899;BME280;20544;50.018;20.010;2023-04-24T13:36:16;97585.05;;;19.58;100.00
23899;BME280;20544;50.018;20.010;2023-04-24T13:39:32;97590.98;;;19.39;100.00
23899;BME280;20544;50.018;20.010;2023-04-24T13:42:50;97597.09;;;18.93;100.00
23899;BME280;20544;50.018;20.010;2023-04-24T13:46:07;97594.88;;;18.85;100.00
23899;BME280;20544;50.018;20.010;2023-04-24T13:49:24;97601.51;;;18.62;100.00
23899;BME280;20544;50.018;20.010;2023-04-24T13:52:41;97594.45;;;18.40;100.00
23899;BME280;20544;50.018;20.010;2023-04-24T13:55:57;97601.44;;;18.41;100.00
23899;BME280;20544;50.018;20.010;2023-04-24T13:59:14;97602.92;;;18.16;100.00
23899;BME280;20544;50.018;20.010;2023-04-24T14:02:30;97601.25;;;18.05;100.00
23899;BME280;20544;50.018;20.010;2023-04-24T14:05:47;97617.16;;;17.84;100.00
23899;BME280;20544;50.018;20.010;2023-04-24T14:09:03;97610.15;;;17.78;100.00
23899;BME280;20544;50.018;20.010;2023-04-24T14:12:20;97615.74;;;17.71;100.00
23899;BME280;20544;50.018;20.010;2023-04-24T14:15:37;97618.69;;;17.70;100.00
23899;BME280;20544;50.018;20.010;2023-04-24T14:18:53;97617.48;;;17.55;100.00
23899;BME280;20544;50.018;20.010;2023-04-24T14:22:09;97616.77;;;17.65;100.00
23899;BME280;20544;50.018;20.010;2023-04-24T14:25:26;97613.78;;;17.61;100.00
23899;BME280;20544;50.018;20.010;2023-04-24T14:28:42;97622.59;;;17.57;100.00
23899;BME280;20544;50.018;20.010;2023-04-24T14:32:01;97622.66;;;17.62;100.00
23899;BME280;20544;50.018;20.010;2023-04-24T14:35:18;97621.22;;;17.54;100.00
23899;BME280;20544;50.018;20.010;2023-04-24T14:38:37;97617.91;;;17.42;100.00
23899;BME280;20544;50.018;20.010;2023-04-24T14:41:54;97614.16;;;17.43;100.00
23899;BME280;20544;50.018;20.010;2023-04-24T14:45:11;97624.58;;;17.39;100.00
23899;BME280;20544;50.018;20.010;2023-04-24T14:48:28;97615.59;;;17.23;100.00
23899;BME280;20544;50.018;20.010;2023-04-24T14:51:44;97623.93;;;17.27;100.00
23899;BME280;20544;50.018;20.010;2023-04-24T14:55:01;97626.08;;;17.25;100.00
23899;BME280;20544;50.018;20.010;2023-04-24T14:58:18;97621.91;;;17.12;100.00
23899;BME280;20544;50.018;20.010;2023-04-24T15:01:34;97623.64;;;16.96;100.00
23899;BME280;20544;50.018;20.010;2023-04-24T15:04:51;97618.08;;;17.03;100.00
23899;BME280;20544;50.018;20.010;2023-04-24T15:08:08;97619.34;;;16.95;100.00
23899;BME280;20544;50.018;20.010;2023-04-24T15:11:24;97614.13;;;16.88;100.00
23899;BME280;20544;50.018;20.010;2023-04-24T15:14:46;97623.38;;;16.97;100.00
23899;BME280;20544;50.018;20.010;2023-04-24T15:18:10;97621.24;;;17.00;100.00
23899;BME280;20544;50.018;20.010;2023-04-24T15:21:26;97612.46;;;16.82;100.00
23899;BME280;20544;50.018;20.010;2023-04-24T15:24:43;97620.75;;;16.80;100.00
23899;BME280;20544;50.018;20.010;2023-04-24T15:28:00;97624.73;;;16.78;100.00
23899;BME280;20544;50.018;20.010;2023-04-24T15:31:16;97619.44;;;16.61;100.00
23899;BME280;20544;50.018;20.010;2023-04-24T15:34:33;97625.63;;;16.61;100.00
23899;BME280;20544;50.018;20.010;2023-04-24T15:37:54;97617.02;;;16.59;100.00
23899;BME280;20544;50.018;20.010;2023-04-24T15:41:11;97616.78;;;16.39;100.00
23899;BME280;20544;50.018;20.010;2023-04-24T15:44:28;97612.29;;;16.44;100.00
23899;BME280;20544;50.018;20.010;2023-04-24T15:47:46;97608.60;;;16.28;100.00
23899;BME280;20544;50.018;20.010;2023-04-24T15:51:02;97605.93;;;16.28;100.00
23899;BME280;20544;50.018;20.010;2023-04-24T15:54:19;97610.16;;;16.24;100.00
23899;BME280;20544;50.018;20.010;2023-04-24T15:57:35;97618.83;;;16.31;100.00
23899;BME280;20544;50.018;20.010;2023-04-24T16:00:53;97623.54;;;16.24;100.00
23899;BME280;20544;50.018;20.010;2023-04-24T16:04:11;97625.36;;;16.01;100.00
23899;BME280;20544;50.018;20.010;2023-04-24T16:07:29;97624.90;;;15.88;100.00
23899;BME280;20544;50.018;20.010;2023-04-24T16:10:47;97625.19;;;15.74;100.00
23899;BME280;20544;50.018;20.010;2023-04-24T16:14:11;97625.59;;;15.66;100.00
23899;BME280;20544;50.018;20.010;2023-04-24T16:17:29;97628.59;;;15.69;100.00
23899;BME280;20544;50.018;20.010;2023-04-24T16:20:49;97621.93;;;15.55;100.00
23899;BME280;20544;50.018;20.010;2023-04-24T16:24:06;97617.16;;;15.57;100.00
23899;BME280;20544;50.018;20.010;2023-04-24T16:27:22;97614.16;;;15.53;100.00
23899;BME280;20544;50.018;20.010;2023-04-24T16:30:39;97618.29;;;15.61;100.00
23899;BME280;20544;50.018;20.010;2023-04-24T16:33:56;97619.81;;;15.40;100.00
23899;BME280;20544;50.018;20.010;2023-04-24T16:37:12;97618.84;;;15.46;100.00
23899;BME280;20544;50.018;20.010;2023-04-24T16:40:29;97611.08;;;15.45;100.00
23899;BME280;20544;50.018;20.010;2023-04-24T16:43:46;97606.78;;;15.44;100.00
23899;BME280;20544;50.018;20.010;2023-04-24T16:47:03;97616.09;;;15.41;100.00
23899;BME280;20544;50.018;20.010;2023-04-24T16:50:23;97609.13;;;15.40;100.00
23899;BME280;20544;50.018;20.010;2023-04-24T16:53:40;97618.69;;;15.36;100.00
23899;BME280;20544;50.018;20.010;2023-04-24T16:56:56;97612.92;;;15.27;100.00
23899;BME280;20544;50.018;20.010;2023-04-24T17:00:15;97614.05;;;15.31;100.00
23899;BME280;20544;50.018;20.010;2023-04-24T17:03:32;97613.17;;;15.26;100.00
23899;BME280;20544;50.018;20.010;2023-04-24T17:06:49;97606.13;;;15.19;100.00
23899;BME280;20544;50.018;20.010;2023-04-24T17:10:07;97613.33;;;15.19;100.00
23899;BME280;20544;50.018;20.010;2023-04-24T17:13:24;97609.17;;;15.11;100.00